Time;durP1;ratioP1;P1;durP2;ratioP2;P2;SDS_P1;SDS_P2;PMS_P1;PMS_P2;Temp;Humidity;BMP_temperature;BMP_pressure;BME280_temperature;BME280_humidity;BME280_pressure;Samples;Min_cycle;Max_cycle;Signal;HPM_P1;HPM_P2
2022/01/28 00:03:20;;;;;;;13.90;2.88;;;5.70;1.00;;;;;;5156272;27;20537;-85
2022/01/28 00:05:55;;;;;;;10.93;2.85;;;5.70;1.00;;;;;;5138336;27;20226;-86
2022/01/28 00:08:33;;;;;;;7.72;2.95;;;5.70;1.00;;;;;;5133217;27;20244;-86
2022/01/28 00:11:14;;;;;;;6.30;2.00;;;5.80;1.00;;;;;;5133267;27;20226;-86
2022/01/28 00:17:41;;;;;;;7.68;2.53;;;5.80;1.00;;;;;;5135870;27;20240;-86
2022/01/28 00:38:30;;;;;;;12.57;2.53;;;5.90;1.00;;;;;;5136924;27;20336;-86
2022/01/28 00:41:13;;;;;;;11.02;3.53;;;5.90;1.00;;;;;;5140828;27;20328;-86
2022/01/28 00:43:43;;;;;;;6.75;2.42;;;5.90;1.00;;;;;;5130028;27;20810;-86
2022/01/28 00:48:57;;;;;;;9.98;3.45;;;5.90;1.00;;;;;;5123378;27;20210;-85
2022/01/28 00:51:38;;;;;;;7.32;3.42;;;5.90;1.00;;;;;;5132941;27;20686;-85
2022/01/28 00:54:18;;;;;;;10.43;3.40;;;5.90;1.00;;;;;;5138258;27;20214;-85
2022/01/28 00:56:52;;;;;;;10.60;3.05;;;5.90;1.00;;;;;;5133605;27;21151;-85
2022/01/28 00:59:37;;;;;;;12.05;3.80;;;5.90;1.00;;;;;;5129864;27;20217;-86
2022/01/28 01:02:09;;;;;;;7.22;3.15;;;5.90;1.00;;;;;;5140020;27;20234;-85
2022/01/28 01:04:42;;;;;;;10.27;3.03;;;5.90;1.00;;;;;;5144377;27;20228;-85
2022/01/28 01:07:30;;;;;;;12.25;4.32;;;5.90;1.00;;;;;;5163674;27;20219;-84
2022/01/28 01:10:12;;;;;;;10.60;3.00;;;5.90;1.00;;;;;;5179073;27;20227;-84
2022/01/28 01:12:44;;;;;;;10.13;4.00;;;5.90;1.00;;;;;;5127930;27;20220;-86
2022/01/28 01:15:22;;;;;;;14.75;5.72;;;5.90;1.00;;;;;;5118513;27;20219;-86
2022/01/28 01:17:58;;;;;;;9.45;3.47;;;5.90;1.00;;;;;;5136054;27;20234;-85
2022/01/28 01:20:55;;;;;;;10.77;3.60;;;5.90;1.00;;;;;;5115960;27;20218;-85
2022/01/28 01:23:32;;;;;;;12.68;3.70;;;5.90;1.00;;;;;;5135792;27;20223;-86
2022/01/28 01:26:09;;;;;;;8.23;3.30;;;5.90;1.00;;;;;;5114862;27;20313;-86
2022/01/28 01:28:41;;;;;;;8.80;3.90;;;5.90;1.00;;;;;;5119423;27;21994;-86
2022/01/28 01:31:19;;;;;;;15.15;4.07;;;5.90;1.00;;;;;;5118802;27;20309;-86
2022/01/28 01:33:54;;;;;;;13.38;4.05;;;5.90;1.00;;;;;;5115495;27;20790;-87
2022/01/28 01:36:25;;;;;;;10.75;3.25;;;5.90;1.00;;;;;;5129290;27;20230;-86
2022/01/28 01:38:56;;;;;;;20.40;3.70;;;5.90;1.00;;;;;;5128484;27;20265;-87
2022/01/28 01:41:31;;;;;;;14.93;4.40;;;5.90;1.00;;;;;;5106280;27;21128;-86
2022/01/28 01:44:07;;;;;;;12.15;2.97;;;5.80;1.00;;;;;;5123618;27;20212;-86
2022/01/28 01:46:48;;;;;;;10.48;2.85;;;5.80;1.00;;;;;;5127573;27;20227;-85
2022/01/28 01:52:12;;;;;;;10.50;3.10;;;5.80;1.00;;;;;;5130260;27;20314;-86
2022/01/28 01:54:50;;;;;;;11.90;3.92;;;5.80;1.00;;;;;;5124883;27;20223;-87
2022/01/28 01:57:22;;;;;;;14.40;4.03;;;5.80;1.00;;;;;;5155392;27;20258;-85
2022/01/28 01:59:51;;;;;;;12.75;3.30;;;5.80;1.00;;;;;;5151949;27;20223;-86
2022/01/28 02:02:39;;;;;;;9.75;4.53;;;5.80;1.00;;;;;;5144477;27;20226;-85
2022/01/28 02:05:11;;;;;;;11.25;4.00;;;5.80;1.00;;;;;;5145362;27;20219;-86
2022/01/28 02:07:47;;;;;;;9.70;3.30;;;5.80;1.00;;;;;;5134234;27;20334;-86
2022/01/28 02:10:24;;;;;;;11.55;4.90;;;5.80;1.00;;;;;;5123364;27;20285;-86
2022/01/28 02:12:52;;;;;;;17.02;4.10;;;5.70;1.00;;;;;;5119638;27;20780;-86
2022/01/28 02:15:23;;;;;;;12.43;3.65;;;5.70;1.00;;;;;;5116887;27;20226;-86
2022/01/28 02:17:53;;;;;;;10.43;3.33;;;5.70;1.00;;;;;;5120768;27;20830;-85
2022/01/28 02:20:37;;;;;;;14.70;4.68;;;5.70;1.00;;;;;;5115679;27;20227;-85
2022/01/28 02:23:11;;;;;;;12.30;3.83;;;5.70;1.00;;;;;;5116806;27;20326;-86
2022/01/28 02:25:44;;;;;;;10.18;3.10;;;5.70;1.00;;;;;;5112537;27;20224;-85
2022/01/28 02:28:26;;;;;;;10.93;3.28;;;5.70;1.00;;;;;;5117412;27;20219;-85
2022/01/28 02:30:59;;;;;;;10.02;4.30;;;5.70;1.00;;;;;;5116248;27;20225;-86
2022/01/28 02:33:51;;;;;;;10.57;3.20;;;5.70;1.00;;;;;;5119440;27;20231;-86
2022/01/28 02:36:27;;;;;;;13.93;3.30;;;5.70;1.00;;;;;;5148633;27;20238;-85
2022/01/28 02:39:01;;;;;;;10.45;3.35;;;5.70;1.00;;;;;;5138157;27;20219;-85
2022/01/28 02:41:37;;;;;;;9.20;3.20;;;5.70;1.00;;;;;;5103331;27;20234;-85
2022/01/28 02:44:22;;;;;;;9.73;3.80;;;5.70;1.00;;;;;;5119750;27;20234;-85
2022/01/28 02:47:01;;;;;;;11.88;3.97;;;5.70;1.00;;;;;;5119356;27;20230;-87
2022/01/28 02:49:34;;;;;;;12.52;3.28;;;5.70;1.00;;;;;;5114332;27;20220;-87
2022/01/28 02:52:17;;;;;;;7.10;3.08;;;5.80;1.00;;;;;;5120706;27;20226;-85
2022/01/28 02:54:51;;;;;;;7.13;2.78;;;5.80;1.00;;;;;;5114095;27;20250;-85
2022/01/28 02:57:26;;;;;;;9.30;3.40;;;5.70;1.00;;;;;;5120345;27;20227;-86
2022/01/28 02:59:55;;;;;;;9.60;3.15;;;5.60;1.00;;;;;;5116075;27;20299;-86
2022/01/28 03:02:28;;;;;;;9.30;2.97;;;5.60;1.00;;;;;;5115272;27;20953;-87
2022/01/28 03:05:25;;;;;;;13.90;3.85;;;5.60;1.00;;;;;;5112680;27;20769;-87
2022/01/28 03:08:02;;;;;;;10.27;2.58;;;5.60;1.00;;;;;;5114207;27;21114;-87
2022/01/28 03:11:10;;;;;;;13.63;3.85;;;5.50;1.00;;;;;;5118812;27;20219;-87
2022/01/28 03:13:59;;;;;;;10.23;2.97;;;5.40;1.00;;;;;;5114608;27;20244;-87
2022/01/28 03:16:33;;;;;;;13.57;4.47;;;5.40;1.00;;;;;;5113579;27;20314;-87
2022/01/28 03:19:12;;;;;;;15.10;4.55;;;5.40;1.00;;;;;;5136939;27;20231;-87
2022/01/28 03:21:53;;;;;;;7.80;2.90;;;5.40;1.00;;;;;;5118182;27;20322;-87
2022/01/28 03:24:28;;;;;;;10.68;3.30;;;5.40;1.00;;;;;;5112057;27;20222;-87
2022/01/28 03:27:11;;;;;;;15.13;3.85;;;5.40;1.00;;;;;;5115721;27;20293;-87
2022/01/28 03:29:46;;;;;;;9.38;3.17;;;5.50;1.00;;;;;;5139751;27;20263;-87
2022/01/28 03:32:21;;;;;;;12.05;4.47;;;5.50;1.00;;;;;;5136309;27;20475;-86
2022/01/28 03:34:55;;;;;;;8.35;4.07;;;5.50;1.00;;;;;;5117804;27;20246;-85
2022/01/28 03:37:43;;;;;;;9.93;3.50;;;5.60;1.00;;;;;;5107138;27;20223;-87
2022/01/28 03:46:06;;;;;;;11.02;4.00;;;5.60;1.00;;;;;;5107654;27;20325;-86
2022/01/28 03:48:37;;;;;;;20.17;3.72;;;5.60;1.00;;;;;;5116501;27;20288;-87
2022/01/28 03:51:13;;;;;;;11.95;4.00;;;5.60;1.00;;;;;;5110769;27;20215;-86
2022/01/28 03:53:42;;;;;;;6.50;3.30;;;5.60;1.00;;;;;;5120559;27;20218;-85
2022/01/28 03:56:16;;;;;;;10.68;3.47;;;5.60;1.00;;;;;;5121558;27;20259;-86
2022/01/28 03:58:50;;;;;;;12.68;3.90;;;5.70;1.00;;;;;;5149929;27;20214;-85
2022/01/28 04:01:26;;;;;;;17.20;4.72;;;5.60;1.00;;;;;;5134756;27;20247;-85
2022/01/28 04:12:19;;;;;;;11.43;3.45;;;5.70;1.00;;;;;;5121536;27;20230;-86
2022/01/28 04:15:04;;;;;;;7.20;3.20;;;5.70;1.00;;;;;;5121520;27;20222;-86
2022/01/28 04:17:31;;;;;;;6.32;3.20;;;5.70;1.00;;;;;;5125881;27;20222;-86
2022/01/28 04:19:59;;;;;;;8.88;3.05;;;5.70;1.00;;;;;;5125940;27;20212;-86
2022/01/28 04:22:26;;;;;;;9.55;3.58;;;5.70;1.00;;;;;;5125560;27;20259;-84
2022/01/28 04:24:54;;;;;;;9.40;5.40;;;5.70;1.00;;;;;;5149132;27;20255;-86
2022/01/28 04:27:26;;;;;;;9.02;3.03;;;5.70;1.00;;;;;;5149716;27;20272;-86
2022/01/28 04:29:53;;;;;;;12.60;4.55;;;5.70;1.00;;;;;;5144859;27;20222;-85
2022/01/28 04:32:21;;;;;;;21.48;4.28;;;5.70;1.00;;;;;;5143990;27;20351;-86
2022/01/28 04:34:53;;;;;;;9.80;3.95;;;5.70;1.00;;;;;;5128755;27;20222;-86
2022/01/28 04:37:27;;;;;;;15.52;3.42;;;5.80;1.00;;;;;;5119520;27;20291;-85
2022/01/28 04:40:00;;;;;;;9.60;3.20;;;5.80;1.00;;;;;;5115914;27;20712;-87
2022/01/28 04:42:47;;;;;;;17.08;4.03;;;5.70;1.00;;;;;;5119047;27;20326;-86
2022/01/28 04:45:29;;;;;;;14.88;3.50;;;5.80;1.00;;;;;;5122147;27;20262;-87
2022/01/28 04:48:06;;;;;;;11.13;3.22;;;5.80;1.00;;;;;;5101951;27;20326;-86
2022/01/28 04:50:43;;;;;;;9.90;3.40;;;5.80;1.00;;;;;;5102255;27;20224;-86
2022/01/28 04:53:32;;;;;;;14.65;3.58;;;5.80;1.00;;;;;;5107798;27;20230;-87
2022/01/28 04:56:13;;;;;;;10.88;3.05;;;5.80;1.00;;;;;;5109886;28;20249;-86
2022/01/28 04:58:57;;;;;;;9.60;3.22;;;5.80;1.00;;;;;;5099356;27;20223;-86
2022/01/28 05:04:27;;;;;;;10.90;3.38;;;5.80;1.00;;;;;;5123425;27;20309;-85
2022/01/28 05:10:17;;;;;;;8.88;2.80;;;5.80;1.00;;;;;;5128104;27;20223;-87
2022/01/28 05:13:12;;;;;;;15.10;3.30;;;5.80;1.00;;;;;;5100416;27;20219;-85
2022/01/28 05:16:13;;;;;;;10.05;3.22;;;5.80;1.00;;;;;;5131423;27;20235;-84
2022/01/28 05:26:59;;;;;;;13.32;3.80;;;5.80;1.00;;;;;;5121549;27;20250;-86
2022/01/28 05:29:26;;;;;;;8.57;4.40;;;5.90;1.00;;;;;;5113945;27;20243;-84
2022/01/28 05:31:54;;;;;;;11.40;3.25;;;5.90;1.00;;;;;;5108908;27;21265;-82
2022/01/28 05:34:27;;;;;;;11.50;4.75;;;5.90;1.00;;;;;;5099383;27;20903;-86
2022/01/28 05:36:59;;;;;;;12.57;4.13;;;5.80;1.00;;;;;;5093668;27;20227;-86
2022/01/28 05:39:27;;;;;;;13.68;3.40;;;5.90;1.00;;;;;;5095306;27;20679;-83
2022/01/28 05:41:54;;;;;;;10.35;3.10;;;5.90;1.00;;;;;;5109336;27;20252;-81
2022/01/28 05:44:22;;;;;;;12.43;3.67;;;5.90;1.00;;;;;;5114296;27;20286;-81
2022/01/28 05:46:48;;;;;;;10.23;3.35;;;5.90;1.00;;;;;;5116491;27;20236;-86
2022/01/28 05:49:17;;;;;;;9.70;3.33;;;5.90;1.00;;;;;;5093617;27;20227;-90
2022/01/28 05:51:45;;;;;;;13.05;3.80;;;5.90;1.00;;;;;;5103937;27;21202;-88
2022/01/28 05:54:13;;;;;;;10.82;3.67;;;5.90;1.00;;;;;;5104484;27;20211;-88
2022/01/28 05:56:39;;;;;;;15.18;4.38;;;5.90;1.00;;;;;;5106428;27;20287;-88
2022/01/28 05:59:06;;;;;;;11.00;4.45;;;5.90;1.00;;;;;;5102467;27;20223;-89
2022/01/28 06:01:33;;;;;;;20.17;4.32;;;5.90;1.00;;;;;;5102829;27;20239;-89
2022/01/28 06:04:00;;;;;;;6.93;3.60;;;5.90;1.00;;;;;;5103434;27;20239;-90
2022/01/28 06:06:30;;;;;;;12.63;3.40;;;5.90;1.00;;;;;;5109191;27;20231;-90
2022/01/28 06:08:57;;;;;;;10.75;3.63;;;5.90;1.00;;;;;;5095618;27;20302;-84
2022/01/28 06:11:25;;;;;;;11.25;3.15;;;5.90;1.00;;;;;;5094983;27;20981;-86
2022/01/28 06:13:52;;;;;;;13.27;4.45;;;5.90;1.00;;;;;;5092181;27;20376;-86
2022/01/28 06:16:19;;;;;;;14.43;4.18;;;5.90;1.00;;;;;;5097776;27;20240;-87
2022/01/28 06:18:47;;;;;;;8.65;3.13;;;6.00;1.00;;;;;;5095705;27;20224;-86
2022/01/28 06:21:13;;;;;;;14.75;3.42;;;5.90;1.00;;;;;;5105762;27;21079;-88
2022/01/28 06:23:44;;;;;;;8.43;3.50;;;6.00;1.00;;;;;;5105951;27;21075;-88
2022/01/28 06:26:11;;;;;;;12.45;2.90;;;5.90;1.00;;;;;;5089816;28;20232;-88
2022/01/28 06:28:38;;;;;;;10.23;3.70;;;5.90;1.00;;;;;;5106793;27;20220;-84
2022/01/28 06:31:05;;;;;;;9.52;2.95;;;5.90;1.00;;;;;;5108780;27;20227;-88
2022/01/28 06:33:32;;;;;;;13.02;4.22;;;5.90;1.00;;;;;;5122916;27;20306;-84
2022/01/28 06:35:59;;;;;;;10.93;3.80;;;5.90;1.00;;;;;;5105127;27;20292;-88
2022/01/28 06:38:26;;;;;;;11.40;3.75;;;5.80;1.00;;;;;;5114501;27;20236;-85
2022/01/28 06:40:54;;;;;;;13.73;4.97;;;5.90;1.00;;;;;;5118880;27;20340;-85
2022/01/28 06:43:21;;;;;;;7.32;3.03;;;5.90;1.00;;;;;;5101335;27;20227;-86
2022/01/28 06:45:47;;;;;;;11.90;3.60;;;5.90;1.00;;;;;;5103996;27;20318;-86
2022/01/28 06:48:16;;;;;;;11.88;3.97;;;5.90;1.00;;;;;;5105283;27;20307;-85
2022/01/28 06:50:44;;;;;;;15.30;4.00;;;5.90;1.00;;;;;;5100088;27;20239;-85
2022/01/28 06:53:12;;;;;;;15.75;4.05;;;5.90;1.00;;;;;;5100081;27;20280;-88
2022/01/28 06:55:39;;;;;;;16.67;4.30;;;5.90;1.00;;;;;;5102671;27;21726;-84
2022/01/28 06:58:08;;;;;;;11.43;3.95;;;5.90;1.00;;;;;;5103841;27;20212;-84
2022/01/28 07:00:37;;;;;;;12.23;3.22;;;5.80;1.00;;;;;;5094540;27;20462;-85
2022/01/28 07:03:04;;;;;;;13.63;4.55;;;5.80;1.00;;;;;;5103161;27;20232;-83
2022/01/28 07:05:31;;;;;;;15.43;4.70;;;5.90;1.00;;;;;;5094962;27;20232;-83
2022/01/28 07:07:58;;;;;;;9.50;2.53;;;5.80;1.00;;;;;;5098958;27;20244;-83
2022/01/28 07:10:25;;;;;;;11.25;4.43;;;5.80;1.00;;;;;;5099502;27;20250;-82
2022/01/28 07:12:54;;;;;;;10.60;4.78;;;5.70;1.00;;;;;;5095984;27;20215;-86
2022/01/28 07:15:24;;;;;;;9.23;3.65;;;5.70;1.00;;;;;;5096474;27;21171;-83
2022/01/28 07:17:51;;;;;;;12.05;3.22;;;5.70;1.00;;;;;;5097385;27;20224;-85
2022/01/28 07:20:18;;;;;;;8.50;3.50;;;5.70;1.00;;;;;;5101738;27;20227;-86
2022/01/28 07:22:45;;;;;;;16.27;4.53;;;5.60;1.00;;;;;;5095777;27;20211;-86
2022/01/28 07:25:12;;;;;;;15.50;4.00;;;5.60;1.00;;;;;;5100667;27;20223;-86
2022/01/28 07:27:39;;;;;;;13.73;4.38;;;5.60;1.00;;;;;;5103373;27;21439;-86
2022/01/28 07:30:07;;;;;;;12.65;4.75;;;5.60;1.00;;;;;;5100012;27;20224;-86
2022/01/28 07:32:36;;;;;;;14.88;4.93;;;5.50;1.00;;;;;;5119786;27;20626;-85
2022/01/28 07:35:04;;;;;;;14.55;4.07;;;5.50;1.00;;;;;;5125584;27;20206;-85
2022/01/28 07:37:31;;;;;;;18.25;10.75;;;5.40;1.00;;;;;;5128189;27;20216;-87
2022/01/28 07:39:58;;;;;;;10.95;4.07;;;5.50;1.00;;;;;;5103380;27;20254;-86
2022/01/28 07:42:25;;;;;;;11.32;4.18;;;5.50;1.00;;;;;;5102692;27;20215;-85
2022/01/28 07:44:52;;;;;;;14.82;4.20;;;5.50;1.00;;;;;;5096455;27;20335;-86
2022/01/28 07:47:19;;;;;;;15.68;4.00;;;5.50;1.00;;;;;;5103385;27;20300;-86
2022/01/28 07:49:47;;;;;;;13.93;4.28;;;5.50;1.00;;;;;;5104316;27;21280;-85
2022/01/28 07:52:14;;;;;;;15.18;3.97;;;5.50;1.00;;;;;;5104495;27;20220;-85
2022/01/28 07:54:47;;;;;;;9.13;3.40;;;5.50;1.00;;;;;;5102660;27;20304;-87
2022/01/28 07:57:14;;;;;;;21.50;4.35;;;5.50;1.00;;;;;;5100239;27;20398;-84
2022/01/28 07:59:41;;;;;;;9.43;2.97;;;5.60;1.00;;;;;;5106698;27;20326;-82
2022/01/28 08:02:08;;;;;;;14.85;3.60;;;5.50;1.00;;;;;;5101302;27;20231;-83
2022/01/28 08:04:35;;;;;;;19.83;5.07;;;5.50;1.00;;;;;;5105142;27;20238;-83
2022/01/28 08:07:03;;;;;;;11.07;3.90;;;5.40;1.00;;;;;;5097401;27;20307;-82
2022/01/28 08:09:29;;;;;;;13.88;4.50;;;5.50;1.00;;;;;;5103048;27;20219;-83
2022/01/28 08:11:56;;;;;;;16.50;5.63;;;5.50;1.00;;;;;;5102123;27;20219;-81
2022/01/28 08:14:24;;;;;;;14.88;4.78;;;5.50;1.00;;;;;;5120869;27;20215;-83
2022/01/28 08:16:52;;;;;;;12.38;5.05;;;5.50;1.00;;;;;;5103148;27;20331;-82
2022/01/28 08:19:19;;;;;;;13.15;4.07;;;5.50;1.00;;;;;;5097734;27;20371;-83
2022/01/28 08:21:46;;;;;;;9.38;4.53;;;5.50;1.00;;;;;;5103984;27;20734;-82
2022/01/28 08:24:15;;;;;;;16.77;4.72;;;5.50;1.00;;;;;;5100571;27;20314;-83
2022/01/28 08:26:43;;;;;;;17.85;5.90;;;5.50;1.00;;;;;;5089919;27;20247;-83
2022/01/28 08:29:10;;;;;;;14.95;4.40;;;5.60;1.00;;;;;;5096819;27;20309;-84
2022/01/28 08:31:37;;;;;;;16.50;5.00;;;5.60;1.00;;;;;;5085980;27;20725;-84
2022/01/28 08:34:04;;;;;;;14.88;5.00;;;5.60;1.00;;;;;;5101287;27;20254;-83
2022/01/28 08:36:30;;;;;;;15.18;4.85;;;5.60;1.00;;;;;;5097577;27;20310;-85
2022/01/28 08:38:57;;;;;;;12.70;3.70;;;5.60;1.00;;;;;;5097676;27;20375;-84
2022/01/28 08:41:26;;;;;;;14.65;4.95;;;5.60;1.00;;;;;;5102592;27;20219;-82
2022/01/28 08:43:53;;;;;;;14.80;4.78;;;5.70;1.00;;;;;;5101129;27;20320;-84
2022/01/28 08:46:20;;;;;;;14.75;5.38;;;5.80;1.00;;;;;;5100190;27;20329;-82
2022/01/28 08:48:47;;;;;;;13.60;4.88;;;5.80;1.00;;;;;;5100959;27;20232;-83
2022/01/28 08:51:14;;;;;;;12.18;5.00;;;6.20;1.00;;;;;;5095715;27;20227;-82
2022/01/28 08:53:40;;;;;;;14.25;4.28;;;6.40;1.00;;;;;;5105373;27;20223;-85
2022/01/28 08:56:07;;;;;;;13.73;4.60;;;6.40;1.00;;;;;;5103385;27;20327;-86
2022/01/28 08:58:35;;;;;;;9.25;3.70;;;6.30;1.00;;;;;;5106084;27;20278;-86
2022/01/28 09:01:02;;;;;;;15.63;5.30;;;6.30;1.00;;;;;;5108669;27;20914;-86
2022/01/28 09:03:29;;;;;;;11.35;4.68;;;6.40;1.00;;;;;;5106872;27;20223;-88
2022/01/28 09:05:58;;;;;;;10.75;4.15;;;6.30;1.00;;;;;;5113379;27;20269;-83
2022/01/28 09:08:25;;;;;;;11.15;4.25;;;6.10;1.00;;;;;;5116013;27;20220;-83
2022/01/28 09:11:07;;;;;;;11.90;3.60;;;6.10;1.00;;;;;;5120634;27;20235;-85
2022/01/28 09:13:38;;;;;;;14.02;4.93;;;6.00;1.00;;;;;;5109047;27;21137;-87
2022/01/28 09:16:05;;;;;;;10.93;4.70;;;6.20;1.00;;;;;;5113398;27;20299;-87
2022/01/28 09:18:32;;;;;;;24.10;5.50;;;6.30;1.00;;;;;;5103741;27;20228;-87
2022/01/28 09:20:59;;;;;;;10.43;4.22;;;6.30;1.00;;;;;;5106552;27;20269;-85
2022/01/28 09:23:26;;;;;;;14.93;4.88;;;6.20;1.00;;;;;;5123902;27;20236;-86
2022/01/28 09:25:53;;;;;;;14.73;5.45;;;6.10;1.00;;;;;;5124652;27;20374;-86
2022/01/28 09:28:19;;;;;;;17.25;4.15;;;6.20;1.00;;;;;;5122356;27;20309;-88
2022/01/28 09:30:48;;;;;;;14.35;4.10;;;6.30;1.00;;;;;;5109473;27;20223;-87
2022/01/28 09:33:15;;;;;;;32.17;17.27;;;6.40;1.00;;;;;;5102481;27;20341;-84
2022/01/28 09:35:42;;;;;;;16.73;3.83;;;6.50;1.00;;;;;;5107912;27;20230;-86
2022/01/28 09:38:10;;;;;;;11.70;4.25;;;6.50;1.00;;;;;;5107216;27;20216;-86
2022/01/28 09:40:37;;;;;;;10.88;4.00;;;6.50;1.00;;;;;;5114704;27;20203;-87
2022/01/28 09:43:07;;;;;;;14.63;3.50;;;6.60;1.00;;;;;;5111466;27;20262;-85
2022/01/28 09:45:34;;;;;;;17.77;5.07;;;6.70;1.00;;;;;;5114789;27;21531;-86
2022/01/28 09:48:03;;;;;;;15.73;4.82;;;6.90;1.00;;;;;;5125522;27;21539;-84
2022/01/28 09:50:32;;;;;;;16.65;4.95;;;6.90;1.00;;;;;;5115466;27;20219;-87
2022/01/28 09:53:00;;;;;;;12.63;4.00;;;7.20;1.00;;;;;;5112928;27;21100;-87
2022/01/28 09:55:27;;;;;;;15.25;3.92;;;8.00;1.00;;;;;;5108398;27;20246;-86
2022/01/28 09:57:57;;;;;;;10.57;3.95;;;8.60;1.00;;;;;;5109063;27;20231;-86
2022/01/28 10:00:25;;;;;;;8.85;3.50;;;8.40;1.00;;;;;;5101326;27;20228;-86
2022/01/28 10:02:55;;;;;;;14.27;4.07;;;8.10;1.00;;;;;;5102674;27;20220;-85
2022/01/28 10:05:26;;;;;;;9.60;3.42;;;7.80;1.00;;;;;;5104735;27;20253;-86
2022/01/28 10:08:00;;;;;;;12.30;4.40;;;7.60;1.00;;;;;;5104155;27;20211;-86
2022/01/28 10:10:40;;;;;;;13.02;4.35;;;7.50;1.00;;;;;;5097232;27;20306;-85
2022/01/28 10:13:13;;;;;;;12.45;3.17;;;7.90;1.00;;;;;;5101684;27;20227;-85
2022/01/28 10:15:56;;;;;;;12.05;4.20;;;8.10;1.00;;;;;;5097863;27;20244;-85
2022/01/28 10:18:39;;;;;;;11.98;3.80;;;7.70;1.00;;;;;;5103479;27;20279;-86
2022/01/28 10:21:26;;;;;;;11.45;3.60;;;7.70;1.00;;;;;;5101114;27;20220;-86
2022/01/28 10:24:05;;;;;;;14.27;4.50;;;7.80;1.00;;;;;;5102146;27;20251;-86
2022/01/28 10:26:35;;;;;;;12.55;3.92;;;7.50;1.00;;;;;;5098306;27;20211;-85
2022/01/28 10:29:04;;;;;;;10.10;3.97;;;7.40;1.00;;;;;;5097174;27;20224;-86
2022/01/28 10:31:44;;;;;;;11.88;4.32;;;7.70;1.00;;;;;;5100241;27;20239;-85
2022/01/28 10:34:17;;;;;;;16.45;5.45;;;7.80;1.00;;;;;;5100147;27;20300;-86
2022/01/28 10:36:47;;;;;;;12.25;3.60;;;7.80;1.00;;;;;;5097832;27;20304;-86
2022/01/28 10:39:20;;;;;;;14.30;4.13;;;7.60;1.00;;;;;;5100132;27;24696;-86
2022/01/28 10:41:52;;;;;;;14.90;3.85;;;7.60;1.00;;;;;;5097943;27;20287;-87
2022/01/28 10:44:19;;;;;;;15.38;4.43;;;7.40;1.00;;;;;;5094202;27;20335;-85
2022/01/28 10:46:52;;;;;;;9.88;3.90;;;7.20;1.00;;;;;;5104132;27;20231;-87
2022/01/28 10:49:19;;;;;;;8.60;3.60;;;7.30;1.00;;;;;;5096154;27;20688;-87
2022/01/28 10:51:49;;;;;;;14.07;3.30;;;7.60;1.00;;;;;;5102052;27;20224;-86
2022/01/28 10:54:17;;;;;;;13.68;4.30;;;7.80;1.00;;;;;;5096278;27;20219;-86
2022/01/28 10:56:49;;;;;;;14.82;4.32;;;8.00;1.00;;;;;;5091813;27;20225;-86
2022/01/28 10:59:17;;;;;;;7.18;3.65;;;8.40;1.00;;;;;;5092567;27;20270;-87
2022/01/28 11:01:45;;;;;;;9.23;3.75;;;8.50;1.00;;;;;;5104960;27;20265;-85
2022/01/28 11:04:13;;;;;;;15.38;4.50;;;8.50;1.00;;;;;;5123550;27;20266;-86
2022/01/28 11:06:41;;;;;;;8.80;3.03;;;8.60;1.00;;;;;;5112772;27;20212;-84
2022/01/28 11:09:11;;;;;;;12.32;3.67;;;8.80;1.00;;;;;;5098216;27;20232;-87
2022/01/28 11:11:39;;;;;;;10.73;3.55;;;9.00;1.00;;;;;;5098457;28;20608;-86
2022/01/28 11:14:06;;;;;;;10.05;3.80;;;9.30;1.00;;;;;;5096124;27;20221;-86
2022/01/28 11:16:33;;;;;;;12.40;4.23;;;9.60;1.00;;;;;;5094087;27;20250;-87
2022/01/28 11:19:01;;;;;;;11.10;4.07;;;9.80;1.00;;;;;;5089658;27;20716;-87
2022/01/28 11:21:34;;;;;;;16.30;5.07;;;9.90;1.00;;;;;;5117926;27;20264;-84
2022/01/28 11:24:07;;;;;;;12.65;3.45;;;10.30;1.00;;;;;;5101627;27;20233;-87
2022/01/28 11:26:45;;;;;;;11.23;3.87;;;11.00;1.00;;;;;;5099847;27;20286;-85
2022/01/28 11:29:13;;;;;;;8.68;3.20;;;11.00;1.00;;;;;;5093086;27;21050;-86
2022/01/28 11:31:42;;;;;;;11.00;4.00;;;11.00;1.00;;;;;;5102118;27;20288;-86
2022/01/28 11:34:17;;;;;;;9.10;3.60;;;10.70;1.00;;;;;;5099516;27;20454;-88
2022/01/28 11:36:44;;;;;;;12.50;3.63;;;10.40;1.00;;;;;;5113322;27;20285;-88
2022/01/28 11:39:22;;;;;;;12.13;4.00;;;10.30;1.00;;;;;;5097126;27;20479;-87
2022/01/28 11:42:03;;;;;;;8.07;3.40;;;9.90;1.00;;;;;;5098790;27;20521;-85
2022/01/28 11:44:52;;;;;;;13.00;3.38;;;9.40;1.00;;;;;;5094294;27;20328;-86
2022/01/28 11:47:25;;;;;;;12.60;4.80;;;9.30;1.00;;;;;;5095044;27;20751;-88
2022/01/28 11:50:00;;;;;;;10.77;4.22;;;10.00;1.00;;;;;;5096106;27;20454;-88
2022/01/28 11:52:30;;;;;;;9.00;4.70;;;10.60;1.00;;;;;;5097741;27;20229;-89
2022/01/28 11:55:33;;;;;;;9.80;4.50;;;10.70;1.00;;;;;;5121275;27;20544;-88
2022/01/28 12:00:47;;;;;;;9.37;3.23;;;11.20;1.00;;;;;;5109833;27;21379;-89
2022/01/28 12:03:20;;;;;;;8.50;3.37;;;10.70;1.00;;;;;;5104496;27;20581;-90
2022/01/28 12:05:56;;;;;;;8.20;2.80;;;10.70;1.00;;;;;;5101683;27;20469;-87
2022/01/28 12:08:28;;;;;;;10.57;4.63;;;10.70;1.00;;;;;;5109869;27;20461;-89
2022/01/28 12:10:57;;;;;;;7.93;3.37;;;10.30;1.00;;;;;;5109406;27;20442;-87
2022/01/28 12:13:32;;;;;;;9.87;3.73;;;10.50;1.00;;;;;;5106338;27;20446;-89
2022/01/28 12:16:10;;;;;;;10.17;4.53;;;10.50;1.00;;;;;;5102599;27;20422;-88
2022/01/28 12:18:53;;;;;;;8.23;2.90;;;10.60;1.00;;;;;;5106172;27;20482;-89
2022/01/28 12:21:24;;;;;;;7.80;2.63;;;10.90;1.00;;;;;;5105187;27;20491;-88
2022/01/28 12:23:54;;;;;;;11.27;3.43;;;11.60;1.00;;;;;;5109532;27;20451;-89
2022/01/28 12:26:23;;;;;;;8.10;3.40;;;12.40;1.00;;;;;;5108980;27;20459;-88
2022/01/28 12:29:06;;;;;;;6.93;2.73;;;12.30;1.00;;;;;;5107821;27;20450;-88
2022/01/28 12:31:33;;;;;;;9.13;2.80;;;12.30;1.00;;;;;;5122720;27;20471;-86
2022/01/28 12:34:07;;;;;;;10.13;3.20;;;12.50;1.00;;;;;;5135586;27;20457;-88
2022/01/28 12:36:38;;;;;;;7.70;3.43;;;12.30;1.00;;;;;;5127961;27;20416;-88
2022/01/28 12:39:12;;;;;;;8.93;4.20;;;11.90;1.00;;;;;;5119051;27;20466;-88
2022/01/28 12:41:52;;;;;;;9.07;3.13;;;10.70;1.00;;;;;;5111987;27;20432;-89
2022/01/28 12:44:19;;;;;;;11.93;4.00;;;9.90;1.00;;;;;;5115263;28;20421;-88
2022/01/28 12:46:54;;;;;;;5.55;2.63;;;9.60;1.00;;;;;;5100094;27;20284;-88
2022/01/28 12:49:25;;;;;;;9.07;3.30;;;10.50;1.00;;;;;;5099687;27;20280;-87
2022/01/28 12:51:56;;;;;;;4.43;2.67;;;11.70;1.00;;;;;;5103082;27;20512;-87
2022/01/28 12:54:36;;;;;;;9.00;2.60;;;12.20;1.00;;;;;;5115774;27;20445;-85
2022/01/28 12:57:06;;;;;;;10.50;3.13;;;12.40;1.00;;;;;;5114651;27;20553;-87
2022/01/28 12:59:33;;;;;;;10.93;3.00;;;12.20;1.00;;;;;;5100280;27;20510;-86
2022/01/28 13:02:00;;;;;;;7.50;3.53;;;11.70;1.00;;;;;;5096720;27;20497;-84
2022/01/28 13:04:51;;;;;;;12.30;4.63;;;12.30;1.00;;;;;;5098030;27;20526;-85
2022/01/28 13:10:03;;;;;;;8.00;4.33;;;13.20;1.00;;;;;;5099199;27;20521;-84
2022/01/28 13:12:32;;;;;;;7.10;2.87;;;13.40;1.00;;;;;;5103733;27;20542;-84
2022/01/28 13:15:08;;;;;;;6.80;2.67;;;13.20;1.00;;;;;;5103349;27;20497;-84
2022/01/28 13:17:36;;;;;;;6.50;2.80;;;12.90;1.00;;;;;;5123116;27;20441;-85
2022/01/28 13:20:09;;;;;;;7.10;2.57;;;13.80;1.00;;;;;;5131979;27;20429;-85
2022/01/28 13:22:36;;;;;;;9.43;3.33;;;13.80;1.00;;;;;;5140500;27;20494;-85
2022/01/28 13:25:16;;;;;;;6.10;2.43;;;14.30;1.00;;;;;;5103925;27;20544;-85
2022/01/28 13:27:46;;;;;;;6.93;2.63;;;15.40;1.00;;;;;;5098207;27;20477;-85
2022/01/28 13:30:15;;;;;;;8.93;2.63;;;15.00;1.00;;;;;;5093679;27;20453;-84
2022/01/28 13:32:45;;;;;;;7.53;4.73;;;14.40;1.00;;;;;;5101614;28;20469;-84
2022/01/28 13:35:14;;;;;;;8.10;3.10;;;14.20;1.00;;;;;;5109450;27;20523;-85
2022/01/28 13:37:43;;;;;;;11.63;3.27;;;13.20;1.00;;;;;;5100840;27;20446;-83
2022/01/28 13:40:12;;;;;;;6.87;2.90;;;12.30;1.00;;;;;;5101412;27;20477;-85
2022/01/28 13:42:55;;;;;;;8.20;3.20;;;12.20;1.00;;;;;;5099982;27;20441;-84
2022/01/28 13:45:29;;;;;;;5.63;2.70;;;11.80;1.00;;;;;;5100900;27;20504;-83
2022/01/28 13:47:58;;;;;;;9.03;3.40;;;11.40;1.00;;;;;;5109464;27;20449;-85
2022/01/28 13:50:27;;;;;;;8.10;4.20;;;10.80;1.00;;;;;;5099889;27;21216;-85
2022/01/28 13:56:13;;;;;;;10.73;3.15;;;9.80;1.00;;;;;;5104542;27;20430;-86
2022/01/28 13:58:52;;;;;;;9.43;3.58;;;9.20;1.00;;;;;;5102922;27;20285;-83
2022/01/28 14:01:21;;;;;;;8.88;3.47;;;9.10;1.00;;;;;;5096952;27;21062;-84
2022/01/28 14:03:54;;;;;;;7.32;2.88;;;8.80;1.00;;;;;;5102351;27;20434;-85
2022/01/28 14:06:23;;;;;;;8.68;2.25;;;8.40;1.00;;;;;;5099486;27;20235;-83
2022/01/28 14:08:53;;;;;;;8.15;2.72;;;8.10;1.00;;;;;;5099223;27;20230;-84
2022/01/28 14:11:31;;;;;;;8.65;3.20;;;8.00;1.00;;;;;;5101803;27;20338;-85
2022/01/28 14:14:11;;;;;;;10.73;7.78;;;8.00;1.00;;;;;;5099087;27;20223;-86
2022/01/28 14:16:39;;;;;;;6.20;2.30;;;7.80;1.00;;;;;;5104186;27;20209;-84
2022/01/28 14:19:06;;;;;;;8.55;2.80;;;7.70;1.00;;;;;;5114266;27;20243;-84
2022/01/28 14:21:33;;;;;;;8.65;3.47;;;7.60;1.00;;;;;;5116729;27;20253;-87
2022/01/28 14:24:00;;;;;;;8.68;2.63;;;7.60;1.00;;;;;;5100068;27;20216;-85
2022/01/28 14:26:26;;;;;;;12.88;4.95;;;7.70;1.00;;;;;;5101813;27;22049;-81
2022/01/28 14:29:21;;;;;;;5.68;2.60;;;7.70;1.00;;;;;;5109571;27;20619;-81
2022/01/28 14:31:49;;;;;;;9.60;2.63;;;7.70;1.00;;;;;;5115457;27;20232;-80